createdAt,value
2018-06-11T00:01:21.798Z,82.40
2018-06-11T00:05:24.412Z,82.20
2018-06-11T00:09:27.060Z,82.20
2018-06-11T00:13:29.675Z,82.40
2018-06-11T00:17:32.438Z,83.10
2018-06-11T00:21:49.008Z,82.30
2018-06-11T00:25:53.005Z,82.40
2018-06-11T00:29:55.662Z,82.70
2018-06-11T00:33:58.367Z,82.70
2018-06-11T00:38:00.951Z,82.90
2018-06-11T00:42:07.517Z,83.00
2018-06-11T00:46:21.557Z,83.20
2018-06-11T00:50:24.317Z,83.70
2018-06-11T00:54:27.031Z,83.70
2018-06-11T00:58:29.910Z,84.10
2018-06-11T01:02:47.149Z,83.50
2018-06-11T01:06:57.827Z,83.90
2018-06-11T01:11:05.355Z,83.20
2018-06-11T01:15:19.725Z,83.10
2018-06-11T01:19:22.477Z,83.10
2018-06-11T01:23:25.134Z,83.40
2018-06-11T01:27:27.827Z,83.50
2018-06-11T01:31:30.578Z,83.10
2018-06-11T01:35:50.146Z,83.10
2018-06-11T01:39:53.150Z,83.20
2018-06-11T01:43:55.782Z,83.50
2018-06-11T01:47:58.523Z,84.00
2018-06-11T01:52:01.188Z,83.00
2018-06-11T01:56:11.466Z,83.70
2018-06-11T02:00:20.242Z,83.10
2018-06-11T02:04:22.958Z,83.20
2018-06-11T02:08:25.581Z,82.90
2018-06-11T02:12:29.910Z,82.30
2018-06-11T02:16:33.491Z,82.80
2018-06-11T02:20:51.494Z,83.00
2018-06-11T02:24:55.203Z,83.80
2018-06-11T02:28:57.971Z,82.90
2018-06-11T02:33:04.564Z,83.00
2018-06-11T02:37:13.547Z,82.50
2018-06-11T02:41:21.002Z,82.50
2018-06-11T02:45:26.131Z,83.40
2018-06-11T02:49:28.764Z,82.80
2018-06-11T02:53:31.582Z,81.70
2018-06-11T02:57:37.988Z,81.80
2018-06-11T03:01:49.455Z,82.30
2018-06-11T03:05:54.119Z,82.50
2018-06-11T03:09:56.759Z,83.70
2018-06-11T03:13:59.342Z,84.20
2018-06-11T03:22:18.315Z,84.50
2018-06-11T03:26:21.754Z,84.10
2018-06-11T03:30:28.865Z,84.00
2018-06-11T03:34:31.510Z,83.70
2018-06-11T03:38:50.170Z,83.20
2018-06-11T03:47:00.305Z,82.40
2018-06-11T03:51:02.954Z,82.80
2018-06-11T03:55:05.763Z,82.80
2018-06-11T03:59:16.032Z,82.80
2018-06-11T04:03:21.406Z,82.70
2018-06-11T04:07:24.148Z,82.50
2018-06-11T04:11:26.777Z,83.20
2018-06-11T04:15:29.478Z,81.80
2018-06-11T04:19:38.113Z,81.40
2018-06-11T04:23:51.685Z,80.60
2018-06-11T04:27:54.279Z,81.80
2018-06-11T04:31:56.922Z,82.30
2018-06-11T04:35:59.574Z,82.80
2018-06-11T04:40:04.075Z,82.40
2018-06-11T04:48:24.894Z,81.60
2018-06-11T04:52:28.561Z,81.20
2018-06-11T04:56:32.326Z,82.10
2018-06-11T05:00:36.107Z,81.70
2018-06-11T05:04:54.951Z,81.60
2018-06-11T05:17:51.969Z,80.60
2018-06-11T05:21:59.635Z,81.60
2018-06-11T05:26:02.283Z,80.90
2018-06-11T05:30:19.297Z,80.10
2018-06-11T05:34:28.016Z,79.70
2018-06-11T05:38:30.725Z,80.80
2018-06-11T05:42:33.358Z,81.40
2018-06-11T05:46:36.020Z,81.10
2018-06-11T05:50:56.047Z,81.20
2018-06-11T05:54:59.091Z,81.20
2018-06-11T05:59:02.025Z,81.10
2018-06-11T06:07:22.955Z,81.40
2018-06-11T06:11:25.766Z,81.80
2018-06-11T06:15:28.403Z,82.00
2018-06-11T06:19:31.255Z,82.30
2018-06-11T06:23:49.018Z,83.10
2018-06-11T06:27:56.248Z,84.30
2018-06-11T06:31:58.954Z,84.50
2018-06-11T06:36:01.682Z,85.00
2018-06-11T06:40:04.395Z,85.20
2018-06-11T06:44:15.068Z,86.80
2018-06-11T06:48:25.555Z,86.40
2018-06-11T06:52:31.009Z,85.60
2018-06-11T06:56:34.491Z,86.40
2018-06-11T07:00:54.745Z,86.60
2018-06-11T07:09:51.873Z,85.70
2018-06-11T07:13:54.654Z,88.10
2018-06-11T07:17:57.511Z,86.80
2018-06-11T07:22:00.359Z,86.00
2018-06-11T07:26:19.990Z,85.30
2018-06-11T07:30:22.882Z,84.90
2018-06-11T07:34:28.950Z,87.60
2018-06-11T07:38:32.296Z,85.80
2018-06-11T07:42:51.146Z,86.50
2018-06-11T07:46:53.792Z,85.30
2018-06-11T07:51:00.064Z,83.80
2018-06-11T07:55:24.565Z,83.10
2018-06-11T07:59:33.761Z,81.70
2018-06-11T08:07:53.921Z,80.50
2018-06-11T08:11:56.550Z,82.10
2018-06-11T08:16:06.229Z,81.60
2018-06-11T08:20:22.087Z,81.80
2018-06-11T08:24:25.010Z,81.40
2018-06-11T08:28:31.179Z,81.00
2018-06-11T08:32:50.702Z,82.00
2018-06-11T08:36:55.175Z,81.20
2018-06-11T08:40:58.040Z,81.60
2018-06-11T08:45:00.726Z,80.30
2018-06-11T08:49:03.548Z,81.30
2018-06-11T08:53:21.084Z,80.70
2018-06-11T08:57:23.759Z,80.40
2018-06-11T09:01:26.423Z,80.40
2018-06-11T09:05:36.181Z,80.20
2018-06-11T09:09:48.674Z,79.60
2018-06-11T09:17:54.461Z,79.00
2018-06-11T09:21:57.224Z,80.20
2018-06-11T09:25:59.879Z,79.50
2018-06-11T09:30:21.271Z,78.60
2018-06-11T09:34:24.929Z,78.60
2018-06-11T09:38:27.543Z,77.90
2018-06-11T09:42:30.135Z,78.10
2018-06-11T09:50:52.401Z,78.30
2018-06-11T09:54:55.341Z,80.10
2018-06-11T09:58:57.950Z,79.10
2018-06-11T10:03:00.950Z,79.60
2018-06-11T10:07:16.217Z,79.50
2018-06-11T10:11:21.490Z,78.40
2018-06-11T10:15:24.110Z,78.20
2018-06-11T10:19:26.962Z,77.70
2018-06-11T10:23:29.873Z,77.00
2018-06-11T10:31:52.166Z,75.00
2018-06-11T10:35:55.615Z,74.30
2018-06-11T10:39:58.343Z,72.10
2018-06-11T10:44:01.285Z,73.20
2018-06-11T10:48:20.427Z,73.60
2018-06-11T10:52:43.535Z,71.00
2018-06-11T10:56:50.370Z,71.50
2018-06-11T11:00:57.875Z,70.20
2018-06-11T11:05:00.618Z,70.00
2018-06-11T11:09:22.215Z,70.20
2018-06-11T11:13:26.281Z,69.70
2018-06-11T11:17:29.055Z,70.40
2018-06-11T11:21:49.688Z,69.90
2018-06-11T11:25:52.374Z,71.70
2018-06-11T11:29:55.025Z,70.70
2018-06-11T11:34:02.947Z,71.40
2018-06-11T11:38:15.392Z,71.70
2018-06-11T11:42:20.519Z,71.90
2018-06-11T11:46:23.283Z,72.50
2018-06-11T11:50:27.104Z,72.30
2018-06-11T11:54:29.771Z,72.50
2018-06-11T11:58:32.571Z,73.80
2018-06-11T12:02:51.796Z,72.70
2018-06-11T12:07:01.195Z,73.90
2018-06-11T12:11:03.924Z,74.20
2018-06-11T12:15:17.143Z,74.50
2018-06-11T12:19:21.225Z,75.50
2018-06-11T12:23:28.062Z,75.40
2018-06-11T12:27:30.753Z,76.00
2018-06-11T12:31:51.298Z,76.20
2018-06-11T12:36:19.860Z,76.30
2018-06-11T12:40:28.574Z,76.60
2018-06-11T12:44:31.242Z,76.80
2018-06-11T12:48:50.637Z,76.90
2018-06-11T12:52:56.323Z,77.30
2018-06-11T12:56:59.139Z,77.40
2018-06-11T13:01:21.851Z,78.20
2018-06-11T13:05:25.831Z,78.40
2018-06-11T13:09:28.471Z,78.10
2018-06-11T13:13:31.266Z,78.90
2018-06-11T13:17:49.941Z,79.20
2018-06-11T13:22:00.084Z,79.00
2018-06-11T13:26:20.120Z,78.80
2018-06-11T13:30:22.898Z,78.70
2018-06-11T13:34:25.594Z,79.20
2018-06-11T13:39:14.066Z,79.90
2018-06-11T13:43:19.905Z,80.40
2018-06-11T13:47:27.395Z,82.20
2018-06-11T13:55:33.926Z,81.40
2018-06-11T13:59:50.094Z,82.40
2018-06-11T14:07:57.535Z,82.80
2018-06-11T14:12:21.599Z,81.90
2018-06-11T14:16:27.860Z,81.00
2018-06-11T14:20:32.786Z,81.70
2018-06-11T14:24:45.834Z,82.70
2018-06-11T14:29:21.490Z,85.20
2018-06-11T14:33:27.783Z,83.40
2018-06-11T14:37:30.618Z,83.50
2018-06-11T14:41:33.350Z,83.20
2018-06-11T14:49:54.746Z,83.40
2018-06-11T14:54:01.472Z,84.40
2018-06-11T14:58:25.877Z,84.30
2018-06-11T15:02:28.760Z,84.50
2018-06-11T15:06:31.511Z,85.10
2018-06-11T15:15:34.227Z,85.20
2018-06-11T15:19:55.886Z,84.40
2018-06-11T15:24:00.041Z,84.60
2018-06-11T15:28:04.091Z,84.10
2018-06-11T15:32:18.962Z,85.90
2018-06-11T15:36:27.535Z,84.70
2018-06-11T15:40:30.190Z,84.70
2018-06-11T15:48:37.153Z,83.70
2018-06-11T15:52:57.556Z,84.60
2018-06-11T15:57:02.542Z,83.80
2018-06-11T16:01:22.581Z,83.80
2018-06-11T16:05:30.064Z,84.10
2018-06-11T16:10:01.166Z,84.00
2018-06-11T16:14:04.403Z,86.10
2018-06-11T16:18:24.622Z,85.00
2018-06-11T16:22:47.777Z,87.00
2018-06-11T16:26:55.423Z,85.20
2018-06-11T16:31:15.886Z,83.90
2018-06-11T16:39:52.523Z,84.10
2018-06-11T16:43:58.580Z,86.20
2018-06-11T16:48:01.418Z,86.20
2018-06-11T16:52:04.335Z,85.20
2018-06-11T16:56:09.775Z,85.10
2018-06-11T17:00:25.014Z,84.30
2018-06-11T17:04:27.785Z,84.70
2018-06-11T17:08:35.050Z,83.40
2018-06-11T17:12:43.461Z,85.40
2018-06-11T17:16:47.910Z,83.80
2018-06-11T17:20:50.979Z,84.20
2018-06-11T17:24:56.779Z,87.10
2018-06-11T17:29:00.586Z,87.00
2018-06-11T17:33:03.785Z,85.50
2018-06-11T17:37:11.127Z,85.00
2018-06-11T17:41:18.487Z,87.00
2018-06-11T17:45:21.267Z,88.40
2018-06-11T17:50:01.046Z,89.00
2018-06-11T17:54:21.918Z,87.20
2018-06-11T17:58:34.945Z,86.80
2018-06-11T18:02:51.211Z,86.10
2018-06-11T18:07:30.865Z,85.30
2018-06-11T18:15:53.555Z,82.60
2018-06-11T18:19:56.325Z,85.30
2018-06-11T18:24:02.200Z,84.50
2018-06-11T18:28:05.230Z,83.80
2018-06-11T18:32:19.109Z,86.00
2018-06-11T18:36:25.207Z,87.30
2018-06-11T18:40:34.941Z,86.80
2018-06-11T18:44:55.884Z,87.90
2018-06-11T18:48:59.679Z,87.50
2018-06-11T18:53:03.385Z,86.90
2018-06-11T18:57:06.358Z,86.60
2018-06-11T19:01:10.283Z,86.50
2018-06-11T19:09:15.924Z,88.50
2018-06-11T19:13:20.779Z,87.90
2018-06-11T19:17:28.690Z,88.10
2018-06-11T19:21:31.939Z,87.60
2018-06-11T19:25:39.235Z,86.70
2018-06-11T19:29:42.786Z,86.90
2018-06-11T19:33:45.702Z,86.80
2018-06-11T19:37:48.497Z,88.00
2018-06-11T19:41:51.181Z,86.40
2018-06-11T19:45:53.980Z,85.60
2018-06-11T19:49:56.724Z,85.90
2018-06-11T19:53:59.930Z,85.00
2018-06-11T19:58:04.687Z,84.60
2018-06-11T20:02:08.118Z,84.90
2018-06-11T20:10:40.560Z,86.20
2018-06-11T20:14:48.062Z,87.80
2018-06-11T20:18:56.750Z,87.00
2018-06-11T20:22:59.427Z,84.50
2018-06-11T20:27:03.805Z,87.20
2018-06-11T20:31:06.785Z,86.10
2018-06-11T20:35:09.839Z,86.00
2018-06-11T20:39:25.060Z,86.80
2018-06-11T20:43:34.443Z,90.10
2018-06-11T20:47:39.359Z,88.10
2018-06-11T20:51:54.532Z,88.40
2018-06-11T20:55:58.294Z,89.10
2018-06-11T21:00:05.311Z,88.90
2018-06-11T21:04:08.206Z,90.00
2018-06-11T21:08:11.133Z,90.40
2018-06-11T21:12:13.911Z,90.10
2018-06-11T21:16:16.855Z,89.80
2018-06-11T21:20:19.612Z,91.20
2018-06-11T21:24:24.607Z,90.20
2018-06-11T21:28:29.349Z,90.30
2018-06-11T21:32:32.615Z,90.30
2018-06-11T21:36:35.536Z,90.40
2018-06-11T21:40:38.426Z,90.30
2018-06-11T21:44:41.958Z,90.20
2018-06-11T21:48:51.643Z,90.30
2018-06-11T21:52:54.466Z,90.00
2018-06-11T21:56:57.694Z,90.40
2018-06-11T22:01:00.365Z,90.40
2018-06-11T22:05:03.506Z,90.40
2018-06-11T22:09:08.716Z,90.20
2018-06-11T22:13:11.427Z,90.60
2018-06-11T22:17:15.068Z,90.70
2018-06-11T22:21:17.770Z,90.50
2018-06-11T22:25:20.379Z,90.60
2018-06-11T22:29:25.442Z,90.40
2018-06-11T22:33:28.194Z,90.30
2018-06-11T22:37:31.055Z,90.40
2018-06-11T22:41:33.981Z,90.70
2018-06-11T22:45:36.982Z,90.40
2018-06-11T22:49:39.673Z,90.60
2018-06-11T22:53:42.443Z,89.80
2018-06-11T22:57:45.068Z,90.00
2018-06-11T23:01:47.947Z,90.40
2018-06-11T23:05:50.722Z,90.00
2018-06-11T23:09:53.608Z,90.40
2018-06-11T23:13:56.223Z,90.50
2018-06-11T23:17:58.907Z,90.50
2018-06-11T23:22:02.910Z,90.60
2018-06-11T23:26:06.019Z,90.20
2018-06-11T23:30:08.818Z,89.70
2018-06-11T23:34:12.019Z,89.90
2018-06-11T23:38:14.704Z,89.70
2018-06-11T23:42:17.542Z,89.40
2018-06-11T23:46:27.496Z,89.50
2018-06-11T23:50:30.319Z,90.50
2018-06-11T23:54:33.193Z,90.30
2018-06-11T23:58:37.375Z,90.70
